createdAt,value
2023-06-06T00:00:16.303Z,99.9
2023-06-06T00:02:19.894Z,99.9
2023-06-06T00:04:23.568Z,99.9
2023-06-06T00:06:27.013Z,99.9
2023-06-06T00:08:30.576Z,99.9
2023-06-06T00:10:34.176Z,99.9
2023-06-06T00:12:37.757Z,99.9
2023-06-06T00:22:58.644Z,99.9
2023-06-06T00:27:05.810Z,99.9
2023-06-06T00:31:16.002Z,99.9
2023-06-06T00:33:19.602Z,99.9
2023-06-06T00:41:33.819Z,99.9
2023-06-06T00:43:40.534Z,99.9
2023-06-06T00:45:44.115Z,99.9
2023-06-06T00:47:47.707Z,99.9
2023-06-06T00:50:17.742Z,99.9
2023-06-06T00:52:21.285Z,99.9
2023-06-06T00:54:24.848Z,99.9
2023-06-06T00:56:31.512Z,99.9
2023-06-06T00:58:37.548Z,99.9
2023-06-06T01:00:40.219Z,99.9
2023-06-06T01:02:43.798Z,99.9
2023-06-06T01:06:50.874Z,99.9
2023-06-06T01:08:54.452Z,99.9
2023-06-06T01:11:01.103Z,99.9
2023-06-06T01:19:15.458Z,99.9
2023-06-06T01:25:29.285Z,99.9
2023-06-06T01:27:32.899Z,99.9
2023-06-06T01:29:36.440Z,99.9
2023-06-06T01:31:40.098Z,99.9
2023-06-06T01:47:11.505Z,99.9
2023-06-06T01:49:15.033Z,99.9
2023-06-06T02:01:39.662Z,99.9
2023-06-06T02:03:43.329Z,99.9
2023-06-06T02:07:53.480Z,99.9
2023-06-06T02:09:57.080Z,99.9
2023-06-06T02:12:00.661Z,99.9
2023-06-06T02:14:04.224Z,99.9
2023-06-06T02:16:07.917Z,99.9
2023-06-06T02:22:21.724Z,99.9
2023-06-06T02:28:32.484Z,99.9
2023-06-06T02:30:36.123Z,99.9
2023-06-06T02:34:43.198Z,99.9
2023-06-06T02:36:49.887Z,99.9
2023-06-06T02:38:53.452Z,99.9
2023-06-06T02:42:00.374Z,99.9
2023-06-06T02:44:03.981Z,99.9
2023-06-06T02:46:07.568Z,99.9
2023-06-06T02:48:11.232Z,99.9
2023-06-06T02:50:17.788Z,99.9
2023-06-06T02:52:21.357Z,99.9
2023-06-06T02:54:24.940Z,99.9
2023-06-06T02:56:28.549Z,99.9
2023-06-06T02:58:32.150Z,99.9
2023-06-06T03:08:53.163Z,99.9
2023-06-06T03:10:56.757Z,99.9
2023-06-06T03:17:07.541Z,99.9
2023-06-06T03:19:14.188Z,99.9
2023-06-06T03:21:17.791Z,99.9
2023-06-06T03:23:21.402Z,99.9
2023-06-06T03:25:24.975Z,99.9
2023-06-06T03:27:28.563Z,99.9
2023-06-06T03:31:35.820Z,99.9
2023-06-06T03:33:42.452Z,99.9
2023-06-06T03:35:46.046Z,99.9
2023-06-06T03:37:49.641Z,99.9
2023-06-06T03:38:52.971Z,99.9
2023-06-06T03:47:10.425Z,99.9
2023-06-06T03:49:14.029Z,99.9
2023-06-06T03:51:17.613Z,99.9
2023-06-06T03:53:21.231Z,99.9
2023-06-06T03:55:24.824Z,99.9
2023-06-06T03:57:28.386Z,99.9
2023-06-06T03:59:32.010Z,99.9
2023-06-06T04:01:38.680Z,99.9
2023-06-06T04:03:42.366Z,99.9
2023-06-06T04:05:45.868Z,99.9
2023-06-06T04:07:49.455Z,99.9
2023-06-06T04:09:53.050Z,99.9
2023-06-06T04:18:10.558Z,99.9
2023-06-06T04:22:17.805Z,99.9
2023-06-06T04:24:21.270Z,99.9
2023-06-06T04:43:26.259Z,99.9
2023-06-06T04:45:29.846Z,99.9
2023-06-06T04:47:33.533Z,99.9
2023-06-06T04:49:37.098Z,99.9
2023-06-06T04:51:40.601Z,99.9
2023-06-06T04:53:44.194Z,99.9
2023-06-06T04:57:54.470Z,99.9
2023-06-06T05:02:01.671Z,99.9
2023-06-06T05:06:08.836Z,99.9
2023-06-06T05:08:12.398Z,99.9
2023-06-06T05:12:22.689Z,99.9
2023-06-06T05:14:26.230Z,99.9
2023-06-06T05:16:29.855Z,99.9
2023-06-06T05:18:33.410Z,99.9
2023-06-06T05:20:36.982Z,99.9
2023-06-06T05:22:40.598Z,99.9
2023-06-06T05:24:44.171Z,99.9
2023-06-06T05:26:50.823Z,99.9
2023-06-06T05:28:54.401Z,99.9
2023-06-06T05:30:58.052Z,99.9
2023-06-06T05:32:01.309Z,99.9
2023-06-06T05:34:04.835Z,99.9
2023-06-06T05:36:08.431Z,99.9
2023-06-06T05:38:11.939Z,99.9
2023-06-06T05:42:22.195Z,99.9
2023-06-06T05:44:25.774Z,99.9
2023-06-06T05:46:29.394Z,99.9
2023-06-06T05:48:32.891Z,99.9
2023-06-06T05:52:40.034Z,99.9
2023-06-06T05:54:50.111Z,99.9
2023-06-06T05:56:50.269Z,99.9
2023-06-06T05:58:53.832Z,99.9
2023-06-06T06:03:00.986Z,99.9
2023-06-06T06:07:08.084Z,99.9
2023-06-06T06:09:14.720Z,99.9
2023-06-06T06:11:18.299Z,99.9
2023-06-06T06:13:21.850Z,99.9
2023-06-06T06:17:28.997Z,99.9
2023-06-06T06:21:36.007Z,99.9
2023-06-06T06:23:42.682Z,99.9
2023-06-06T06:28:53.028Z,99.9
2023-06-06T06:30:56.593Z,99.9
2023-06-06T06:33:00.251Z,99.9
2023-06-06T06:35:03.652Z,99.9
2023-06-06T06:37:10.336Z,99.9
2023-06-06T06:41:17.412Z,99.9
2023-06-06T06:43:20.926Z,99.9
2023-06-06T06:45:24.509Z,99.9
2023-06-06T06:47:28.027Z,99.9
2023-06-06T06:49:31.522Z,99.9
2023-06-06T06:53:41.633Z,99.9
2023-06-06T06:59:53.711Z,99.9
2023-06-06T07:06:07.330Z,99.9
2023-06-06T07:08:10.879Z,99.9
2023-06-06T07:14:21.472Z,99.9
2023-06-06T07:16:24.963Z,99.9
2023-06-06T07:18:28.474Z,99.9
2023-06-06T07:20:35.093Z,99.9
2023-06-06T07:22:38.586Z,99.9
2023-06-06T07:25:45.395Z,99.9
2023-06-06T07:27:48.916Z,99.9
2023-06-06T07:29:52.424Z,99.9
2023-06-06T07:31:55.971Z,99.9
2023-06-06T07:34:02.488Z,99.9
2023-06-06T07:40:13.290Z,99.9
2023-06-06T07:42:16.465Z,99.9
2023-06-06T07:44:20.011Z,99.9
2023-06-06T07:46:23.499Z,99.9
2023-06-06T07:48:30.020Z,99.9
2023-06-06T07:52:36.952Z,99.9
2023-06-06T07:54:40.453Z,99.9
2023-06-06T07:58:47.395Z,99.9
2023-06-06T08:00:50.893Z,99.9
2023-06-06T08:02:57.497Z,99.9
2023-06-06T08:05:00.965Z,99.9
2023-06-06T08:07:04.361Z,99.9
2023-06-06T08:09:07.833Z,99.9
2023-06-06T08:11:11.310Z,99.9
2023-06-06T08:15:18.240Z,99.9
2023-06-06T08:17:24.824Z,99.9
2023-06-06T08:19:28.233Z,99.9
2023-06-06T08:21:31.679Z,99.9
2023-06-06T08:23:55.765Z,99.9
2023-06-06T08:25:59.156Z,99.9
2023-06-06T08:28:02.617Z,99.9
2023-06-06T08:30:09.132Z,99.9
2023-06-06T08:32:12.566Z,99.9
2023-06-06T08:34:15.975Z,99.9
2023-06-06T08:36:19.414Z,99.9
2023-06-06T08:38:22.850Z,99.9
2023-06-06T08:40:26.247Z,99.9
2023-06-06T08:42:29.658Z,99.9
2023-06-06T08:44:36.199Z,99.9
2023-06-06T08:46:39.680Z,99.9
2023-06-06T08:48:43.013Z,99.9
2023-06-06T08:50:46.444Z,99.9
2023-06-06T08:54:53.256Z,99.9
2023-06-06T08:56:56.668Z,99.9
2023-06-06T08:59:03.071Z,99.9
2023-06-06T09:03:09.966Z,99.9
2023-06-06T09:07:16.666Z,99.9
2023-06-06T09:09:19.955Z,99.9
2023-06-06T09:13:29.836Z,99.9
2023-06-06T09:17:36.621Z,99.9
2023-06-06T09:18:39.839Z,99.9
2023-06-06T09:20:43.285Z,99.9
2023-06-06T09:24:49.896Z,99.9
2023-06-06T09:26:56.363Z,99.9
2023-06-06T09:33:06.492Z,99.9
2023-06-06T09:35:09.494Z,99.9
2023-06-06T09:39:16.101Z,99.9
2023-06-06T09:47:32.161Z,99.9
2023-06-06T09:49:35.381Z,99.9
2023-06-06T09:53:41.938Z,99.9
2023-06-06T09:59:54.613Z,99.9
2023-06-06T10:04:01.599Z,99.9
2023-06-06T10:12:17.049Z,99.9
2023-06-06T10:15:23.371Z,99.9
2023-06-06T10:17:26.629Z,99.9
2023-06-06T10:19:29.781Z,99.9
2023-06-06T10:21:32.967Z,99.9
2023-06-06T10:23:39.296Z,99.9
2023-06-06T10:25:42.383Z,99.9
2023-06-06T10:27:45.670Z,99.9
2023-06-06T10:29:50.174Z,99.9
2023-06-06T10:31:52.008Z,99.9
2023-06-06T10:33:55.126Z,99.9
2023-06-06T10:35:58.277Z,99.9
2023-06-06T10:38:04.459Z,99.9
2023-06-06T10:40:07.614Z,99.9
2023-06-06T10:42:10.799Z,99.9
2023-06-06T10:44:13.949Z,99.9
2023-06-06T10:46:17.152Z,99.9
2023-06-06T10:56:35.854Z,99.9
2023-06-06T10:58:38.980Z,99.9
2023-06-06T11:00:42.144Z,99.9
2023-06-06T11:02:45.316Z,99.9
2023-06-06T11:04:48.374Z,99.9
2023-06-06T11:06:54.521Z,99.9
2023-06-06T11:08:57.635Z,99.9
2023-06-06T11:11:00.731Z,99.9
2023-06-06T11:12:03.798Z,99.9
2023-06-06T11:14:07.271Z,99.9
2023-06-06T11:18:13.164Z,99.9
2023-06-06T11:34:43.698Z,99.9
2023-06-06T11:36:46.729Z,99.9
2023-06-06T11:38:49.775Z,99.9
2023-06-06T11:40:52.765Z,99.9
2023-06-06T11:59:22.860Z,99.9
2023-06-06T12:05:34.844Z,99.9
2023-06-06T12:07:37.789Z,99.9
2023-06-06T12:10:01.124Z,99.9
2023-06-06T12:14:06.976Z,99.9
2023-06-06T12:16:13.043Z,99.2
2023-06-06T12:32:38.920Z,98.6
2023-06-06T12:38:47.329Z,99.2
2023-06-06T12:40:50.119Z,99.6
2023-06-06T12:42:52.937Z,99.8
2023-06-06T12:44:58.767Z,99.8
2023-06-06T12:49:04.293Z,99
2023-06-06T12:51:07.054Z,99.1
2023-06-06T12:53:11.365Z,98.7
2023-06-06T12:57:16.794Z,98.9
2023-06-06T12:59:22.640Z,97.9
2023-06-06T13:01:25.379Z,97.5
2023-06-06T13:03:28.134Z,93.8
2023-06-06T13:04:30.986Z,93.8
2023-06-06T13:14:47.391Z,91.2
2023-06-06T13:18:52.662Z,92.3
2023-06-06T13:20:55.305Z,93.1
2023-06-06T13:25:00.476Z,95
2023-06-06T13:27:06.212Z,94.1
2023-06-06T13:33:14.015Z,86.3
2023-06-06T13:35:16.571Z,87.7
2023-06-06T13:39:21.763Z,92.7
2023-06-06T13:41:27.426Z,93.8
2023-06-06T13:47:35.192Z,91.6
2023-06-06T13:49:37.687Z,93.6
2023-06-06T13:51:40.230Z,95.7
2023-06-06T13:57:51.100Z,95
2023-06-06T13:59:53.715Z,94.8
2023-06-06T14:00:56.634Z,95.1
2023-06-06T14:13:15.191Z,75.6
2023-06-06T14:15:17.753Z,75.5
2023-06-06T14:17:20.309Z,76.3
2023-06-06T14:21:25.416Z,73
2023-06-06T14:23:31.156Z,82.9
2023-06-06T14:25:33.606Z,82.9
2023-06-06T14:27:36.177Z,82.7
2023-06-06T14:29:38.698Z,83.7
2023-06-06T14:33:43.833Z,93.8
2023-06-06T14:35:46.384Z,93.2
2023-06-06T14:46:02.601Z,91.3
2023-06-06T14:48:05.856Z,92
2023-06-06T14:50:07.921Z,92.7
2023-06-06T14:56:19.114Z,94.6
2023-06-06T14:57:22.003Z,95.3
2023-06-06T14:59:24.770Z,97
2023-06-06T15:01:27.557Z,98.3
2023-06-06T15:03:30.411Z,98.5
2023-06-06T15:05:36.155Z,99.5
2023-06-06T15:07:38.936Z,99.5
2023-06-06T15:09:41.784Z,99.8
2023-06-06T15:11:44.609Z,99.8
2023-06-06T15:13:47.453Z,99.9
2023-06-06T15:17:55.724Z,99.9
2023-06-06T15:26:07.796Z,99.9
2023-06-06T15:28:10.723Z,99.2
2023-06-06T15:30:13.643Z,99.1
2023-06-06T15:32:16.582Z,99.1
2023-06-06T15:34:22.671Z,99
2023-06-06T15:36:25.521Z,99.1
2023-06-06T15:38:28.460Z,99.5
2023-06-06T15:40:31.405Z,99.8
2023-06-06T15:42:34.364Z,99.8
2023-06-06T15:44:37.382Z,99.8
2023-06-06T15:46:40.348Z,99.8
2023-06-06T15:48:46.333Z,99.9
2023-06-06T15:55:21.507Z,99.9
2023-06-06T16:07:42.418Z,99.9
2023-06-06T16:09:45.412Z,99.9
2023-06-06T16:11:48.385Z,99.9
2023-06-06T16:13:51.385Z,99.9
2023-06-06T16:15:57.470Z,99.9
2023-06-06T16:18:00.455Z,99.9
2023-06-06T16:22:06.447Z,99.9
2023-06-06T16:24:09.618Z,99.9
2023-06-06T16:26:12.449Z,99.9
2023-06-06T16:36:30.522Z,93.8
2023-06-06T16:38:33.544Z,93
2023-06-06T16:48:51.531Z,93.4
2023-06-06T16:49:54.583Z,98.5
2023-06-06T16:51:57.518Z,99
2023-06-06T16:54:00.457Z,99.2
2023-06-06T16:58:09.396Z,99.7
2023-06-06T17:00:12.388Z,99.7
2023-06-06T17:02:15.357Z,99.9
2023-06-06T17:06:21.296Z,99.5
2023-06-06T17:16:39.187Z,99.9
2023-06-06T17:18:42.251Z,92.6
2023-06-06T17:20:45.126Z,91.4
2023-06-06T17:22:48.104Z,95.9
2023-06-06T17:24:51.083Z,97.3
2023-06-06T17:26:57.125Z,98.5
2023-06-06T17:29:00.104Z,99.2
2023-06-06T17:31:03.119Z,99.6
2023-06-06T17:41:21.217Z,99.9
2023-06-06T17:43:24.296Z,99.9
2023-06-06T17:45:27.323Z,99.9
2023-06-06T17:48:33.485Z,99.9
2023-06-06T17:50:36.566Z,99.9
2023-06-06T17:52:39.646Z,99.9
2023-06-06T17:54:45.754Z,99.9
2023-06-06T18:07:04.336Z,99.9
2023-06-06T18:09:10.448Z,99.9
2023-06-06T18:13:16.622Z,99.9
2023-06-06T18:23:35.119Z,99.9
2023-06-06T18:25:38.197Z,99.9
2023-06-06T18:29:44.361Z,99.9
2023-06-06T18:31:47.536Z,99.9
2023-06-06T18:33:50.555Z,99.9
2023-06-06T18:35:53.656Z,99.9
2023-06-06T18:37:59.776Z,99.9
2023-06-06T18:40:03.278Z,99.9
2023-06-06T18:42:06.009Z,99.9
2023-06-06T18:45:12.209Z,99.9
2023-06-06T18:47:16.892Z,99.9
2023-06-06T18:49:19.970Z,99.9
2023-06-06T19:05:51.390Z,99.9
2023-06-06T19:07:54.578Z,99.9
2023-06-06T19:09:57.775Z,99.9
2023-06-06T19:12:00.963Z,99.9
2023-06-06T19:14:04.144Z,99.9
2023-06-06T19:16:07.520Z,99.9
2023-06-06T19:18:19.314Z,99.9
2023-06-06T19:20:17.218Z,99.9
2023-06-06T19:22:20.236Z,99.9
2023-06-06T19:28:30.231Z,99.9
2023-06-06T19:30:33.544Z,99.9
2023-06-06T19:32:36.881Z,99.9
2023-06-06T19:34:43.271Z,99.9
2023-06-06T19:36:46.610Z,99.9
2023-06-06T19:38:49.980Z,99.9
2023-06-06T19:41:13.973Z,99.9
2023-06-06T19:45:21.695Z,99.9
2023-06-06T20:12:11.084Z,99.9
2023-06-06T20:16:21.112Z,99.9
2023-06-06T20:18:24.423Z,99.9
2023-06-06T20:28:41.519Z,99.9
2023-06-06T20:30:48.050Z,99.9
2023-06-06T20:35:58.128Z,99.9
2023-06-06T20:38:01.565Z,99.9
2023-06-06T20:40:05.367Z,99.9
2023-06-06T20:42:08.413Z,99.9
2023-06-06T20:46:18.362Z,99.9
2023-06-06T20:50:25.177Z,99.9
2023-06-06T20:56:35.412Z,99.9
2023-06-06T20:58:41.952Z,99.9
2023-06-06T21:00:45.382Z,99.9
2023-06-06T21:04:52.235Z,99.9
2023-06-06T21:06:55.676Z,99.9
2023-06-06T21:08:59.079Z,99.9
2023-06-06T21:13:09.103Z,99.9
2023-06-06T21:15:12.497Z,99.9
2023-06-06T21:17:15.914Z,99.9
2023-06-06T21:19:19.361Z,99.9
2023-06-06T21:21:22.797Z,99.9
2023-06-06T21:23:26.259Z,99.9
2023-06-06T21:25:29.699Z,99.9
2023-06-06T21:27:36.268Z,99.9
2023-06-06T21:29:39.694Z,99.9
2023-06-06T21:31:43.261Z,99.9
2023-06-06T21:38:56.775Z,99.9
2023-06-06T21:51:20.633Z,99.9
2023-06-06T21:55:30.694Z,99.9
2023-06-06T21:57:34.181Z,99.9
2023-06-06T21:59:37.712Z,99.9
2023-06-06T22:01:41.207Z,99.9
2023-06-06T22:03:44.836Z,99.9
2023-06-06T22:05:48.114Z,99.9
2023-06-06T22:07:51.572Z,99.9
2023-06-06T22:09:58.161Z,99.9
2023-06-06T22:12:01.717Z,99.9
2023-06-06T22:14:05.115Z,99.9
2023-06-06T22:16:08.625Z,99.9
2023-06-06T22:18:12.106Z,99.9
2023-06-06T22:20:15.554Z,99.9
2023-06-06T22:22:19.047Z,99.9
2023-06-06T22:24:25.720Z,99.9
2023-06-06T22:26:29.357Z,99.9
2023-06-06T22:29:35.907Z,99.9
2023-06-06T22:31:39.456Z,99.9
2023-06-06T22:33:42.884Z,99.9
2023-06-06T22:35:46.419Z,99.9
2023-06-06T22:37:53.003Z,99.9
2023-06-06T22:39:56.478Z,99.9
2023-06-06T22:44:03.517Z,99.9
2023-06-06T22:48:10.484Z,99.9
2023-06-06T22:52:20.598Z,99.9
2023-06-06T22:54:24.102Z,99.9
2023-06-06T22:56:27.625Z,99.9
2023-06-06T22:58:31.148Z,99.9
2023-06-06T23:00:34.650Z,99.9
2023-06-06T23:02:38.234Z,99.9
2023-06-06T23:04:41.716Z,99.9
2023-06-06T23:12:58.884Z,99.9
2023-06-06T23:15:02.469Z,99.9
2023-06-06T23:19:09.483Z,99.9
2023-06-06T23:29:50.582Z,99.9
2023-06-06T23:34:00.746Z,99.9
2023-06-06T23:36:04.276Z,99.9
2023-06-06T23:40:11.374Z,99.9
2023-06-06T23:44:18.441Z,99.9
2023-06-06T23:46:22.046Z,99.9
2023-06-06T23:48:28.594Z,99.9
2023-06-06T23:50:32.164Z,99.9
2023-06-06T23:52:35.670Z,99.9
2023-06-06T23:54:39.246Z,99.9
2023-06-06T23:56:42.820Z,99.9
2023-06-06T23:58:46.346Z,99.9
